Terminal Aerodrome Forecast
Issued by NWS Norman, OK

Home | Current Version | Previous Version | Text Only | Print | Product List | Glossary On
Versions: 1 2 3 4 5 6 7 8 9 10 11 12 13 14 15 16 17 18 19 20 21 22 23 24 25 26 27 28 29
000
FTUS44 KOUN 272337
TAFOKC
TAF
KOKC 272337Z 2800/2824 08008KT 6SM -SN SCT015 OVC040
     FM281200 11008KT 2SM -SN OVC015
     FM282100 13008KT 5SM -FZDZ OVC008=

USA.gov is the U.S. government's official web portal to all federal, state and local government web resources and services.